sensor_id;sensor_type;location;lat;lon;timestamp;pressure;altitude;pressure_sealevel;temperature;humidity
17362;BME280;8798;51.938;4.348;2024-02-04T00:00:14;102492.22;;;11.28;86.77
17362;BME280;8798;51.938;4.348;2024-02-04T00:02:43;102483.31;;;11.28;86.89
17362;BME280;8798;51.938;4.348;2024-02-04T00:05:11;102477.03;;;11.27;86.81
17362;BME280;8798;51.938;4.348;2024-02-04T00:07:39;102483.31;;;11.28;86.81
17362;BME280;8798;51.938;4.348;2024-02-04T00:10:08;102486.84;;;11.28;86.39
17362;BME280;8798;51.938;4.348;2024-02-04T00:12:36;102495.66;;;11.30;86.88
17362;BME280;8798;51.938;4.348;2024-02-04T00:15:06;102500.91;;;11.32;86.29
17362;BME280;8798;51.938;4.348;2024-02-04T00:17:34;102498.22;;;11.32;86.21
17362;BME280;8798;51.938;4.348;2024-02-04T00:20:03;102498.22;;;11.32;86.38
17362;BME280;8798;51.938;4.348;2024-02-04T00:22:33;102495.66;;;11.30;86.35
17362;BME280;8798;51.938;4.348;2024-02-04T00:25:01;102491.25;;;11.29;86.75
17362;BME280;8798;51.938;4.348;2024-02-04T00:27:31;102493.09;;;11.29;86.91
17362;BME280;8798;51.938;4.348;2024-02-04T00:29:59;102493.09;;;11.29;86.53
17362;BME280;8798;51.938;4.348;2024-02-04T00:32:29;102489.53;;;11.28;86.65
17362;BME280;8798;51.938;4.348;2024-02-04T00:34:57;102490.28;;;11.30;86.94
17362;BME280;8798;51.938;4.348;2024-02-04T00:37:25;102491.16;;;11.31;86.90
17362;BME280;8798;51.938;4.348;2024-02-04T00:39:53;102492.97;;;11.30;86.40
17362;BME280;8798;51.938;4.348;2024-02-04T00:42:21;102494.59;;;11.33;86.66
17362;BME280;8798;51.938;4.348;2024-02-04T00:44:49;102503.50;;;11.33;86.77
17362;BME280;8798;51.938;4.348;2024-02-04T00:47:17;102496.38;;;11.32;86.59
17362;BME280;8798;51.938;4.348;2024-02-04T00:49:46;102497.28;;;11.33;86.67
17362;BME280;8798;51.938;4.348;2024-02-04T00:52:14;102512.44;;;11.34;87.04
17362;BME280;8798;51.938;4.348;2024-02-04T00:54:42;102508.75;;;11.35;87.04
17362;BME280;8798;51.938;4.348;2024-02-04T00:57:10;102501.66;;;11.34;86.70
17362;BME280;8798;51.938;4.348;2024-02-04T00:59:38;102512.31;;;11.35;86.25
17362;BME280;8798;51.938;4.348;2024-02-04T01:02:06;102505.22;;;11.34;87.14
17362;BME280;8798;51.938;4.348;2024-02-04T01:04:34;102499.81;;;11.34;87.04
17362;BME280;8798;51.938;4.348;2024-02-04T01:07:03;102506.06;;;11.35;86.90
17362;BME280;8798;51.938;4.348;2024-02-04T01:09:31;102500.69;;;11.35;87.13
17362;BME280;8798;51.938;4.348;2024-02-04T01:11:59;102496.28;;;11.34;87.10
17362;BME280;8798;51.938;4.348;2024-02-04T01:14:27;102493.59;;;11.34;87.22
17362;BME280;8798;51.938;4.348;2024-02-04T01:16:55;102499.06;;;11.32;86.91
17362;BME280;8798;51.938;4.348;2024-02-04T01:19:23;102496.38;;;11.32;86.83
17362;BME280;8798;51.938;4.348;2024-02-04T01:21:51;102487.47;;;11.32;86.54
17362;BME280;8798;51.938;4.348;2024-02-04T01:24:21;102484.78;;;11.32;86.61
17362;BME280;8798;51.938;4.348;2024-02-04T01:26:49;102492.84;;;11.32;86.54
17362;BME280;8798;51.938;4.348;2024-02-04T01:29:17;102492.75;;;11.33;86.66
17362;BME280;8798;51.938;4.348;2024-02-04T01:31:45;102487.47;;;11.32;86.59
17362;BME280;8798;51.938;4.348;2024-02-04T01:34:12;102483.91;;;11.31;86.72
17362;BME280;8798;51.938;4.348;2024-02-04T01:36:41;102486.63;;;11.31;86.35
17362;BME280;8798;51.938;4.348;2024-02-04T01:39:09;102485.75;;;11.31;86.57
17362;BME280;8798;51.938;4.348;2024-02-04T01:41:39;102488.31;;;11.32;87.32
17362;BME280;8798;51.938;4.348;2024-02-04T01:44:07;102480.38;;;11.31;87.40
17362;BME280;8798;51.938;4.348;2024-02-04T01:46:35;102477.69;;;11.31;86.74
17362;BME280;8798;51.938;4.348;2024-02-04T01:49:03;102475.97;;;11.30;87.03
17362;BME280;8798;51.938;4.348;2024-02-04T01:51:32;102475.09;;;11.29;86.77
17362;BME280;8798;51.938;4.348;2024-02-04T01:54:00;102476.09;;;11.28;87.31
17362;BME280;8798;51.938;4.348;2024-02-04T01:56:29;102477.69;;;11.31;86.99
17362;BME280;8798;51.938;4.348;2024-02-04T01:58:59;102479.53;;;11.30;86.88
17362;BME280;8798;51.938;4.348;2024-02-04T02:01:27;102476.84;;;11.30;87.06
17362;BME280;8798;51.938;4.348;2024-02-04T02:03:56;102480.38;;;11.31;86.55
17362;BME280;8798;51.938;4.348;2024-02-04T02:06:24;102479.41;;;11.32;86.86
17362;BME280;8798;51.938;4.348;2024-02-04T02:08:55;102478.53;;;11.31;86.96
17362;BME280;8798;51.938;4.348;2024-02-04T02:11:33;102484.78;;;11.32;86.96
17362;BME280;8798;51.938;4.348;2024-02-04T02:14:13;102481.22;;;11.31;87.19
17362;BME280;8798;51.938;4.348;2024-02-04T02:16:42;102478.53;;;11.31;87.36
17362;BME280;8798;51.938;4.348;2024-02-04T02:19:22;102478.66;;;11.30;86.73
17362;BME280;8798;51.938;4.348;2024-02-04T02:22:00;102467.16;;;11.28;86.85
17362;BME280;8798;51.938;4.348;2024-02-04T02:24:33;102453.06;;;11.24;86.66
17362;BME280;8798;51.938;4.348;2024-02-04T02:27:02;102455.78;;;11.24;87.39
17362;BME280;8798;51.938;4.348;2024-02-04T02:29:32;102453.06;;;11.24;87.35
17362;BME280;8798;51.938;4.348;2024-02-04T02:32:04;102459.31;;;11.25;87.32
17362;BME280;8798;51.938;4.348;2024-02-04T02:34:32;102452.22;;;11.24;87.01
17362;BME280;8798;51.938;4.348;2024-02-04T02:37:15;102446.94;;;11.22;87.09
17362;BME280;8798;51.938;4.348;2024-02-04T02:39:49;102451.38;;;11.23;86.90
17362;BME280;8798;51.938;4.348;2024-02-04T02:42:20;102437.06;;;11.23;87.42
17362;BME280;8798;51.938;4.348;2024-02-04T02:44:50;102455.78;;;11.24;87.47
17362;BME280;8798;51.938;4.348;2024-02-04T02:47:21;102454.69;;;11.27;87.04
17362;BME280;8798;51.938;4.348;2024-02-04T02:49:51;102475.09;;;11.29;87.26
17362;BME280;8798;51.938;4.348;2024-02-04T02:52:19;102479.63;;;11.29;87.06
17362;BME280;8798;51.938;4.348;2024-02-04T02:54:49;102476.84;;;11.30;87.19
17362;BME280;8798;51.938;4.348;2024-02-04T02:57:17;102479.53;;;11.30;86.72
17362;BME280;8798;51.938;4.348;2024-02-04T02:59:45;102483.19;;;11.29;87.00
17362;BME280;8798;51.938;4.348;2024-02-04T03:02:13;102478.66;;;11.30;86.71
17362;BME280;8798;51.938;4.348;2024-02-04T03:04:41;102489.19;;;11.33;87.22
17362;BME280;8798;51.938;4.348;2024-02-04T03:07:09;102493.59;;;11.34;86.74
17362;BME280;8798;51.938;4.348;2024-02-04T03:09:37;102483.81;;;11.33;87.00
17362;BME280;8798;51.938;4.348;2024-02-04T03:12:06;102486.38;;;11.34;87.23
17362;BME280;8798;51.938;4.348;2024-02-04T03:14:34;102489.06;;;11.34;86.72
17362;BME280;8798;51.938;4.348;2024-02-04T03:17:02;102487.38;;;11.33;86.88
17362;BME280;8798;51.938;4.348;2024-02-04T03:19:30;102482.94;;;11.32;87.44
17362;BME280;8798;51.938;4.348;2024-02-04T03:21:58;102493.59;;;11.34;86.76
17362;BME280;8798;51.938;4.348;2024-02-04T03:24:26;102488.22;;;11.34;87.20
17362;BME280;8798;51.938;4.348;2024-02-04T03:26:54;102489.91;;;11.35;87.25
17362;BME280;8798;51.938;4.348;2024-02-04T03:29:24;102488.09;;;11.35;86.96
17362;BME280;8798;51.938;4.348;2024-02-04T03:31:52;102485.41;;;11.35;86.74
17362;BME280;8798;51.938;4.348;2024-02-04T03:34:20;102489.06;;;11.34;87.22
17362;BME280;8798;51.938;4.348;2024-02-04T03:36:48;102495.19;;;11.36;86.61
17362;BME280;8798;51.938;4.348;2024-02-04T03:39:16;102499.47;;;11.39;86.82
17362;BME280;8798;51.938;4.348;2024-02-04T03:41:44;102508.41;;;11.39;87.24
17362;BME280;8798;51.938;4.348;2024-02-04T03:44:12;102507.44;;;11.40;87.09
17362;BME280;8798;51.938;4.348;2024-02-04T03:46:41;102518.97;;;11.43;86.99
17362;BME280;8798;51.938;4.348;2024-02-04T03:49:09;102516.13;;;11.44;87.26
17362;BME280;8798;51.938;4.348;2024-02-04T03:51:37;102531.31;;;11.45;86.90
17362;BME280;8798;51.938;4.348;2024-02-04T03:54:05;102534.72;;;11.47;87.09
17362;BME280;8798;51.938;4.348;2024-02-04T03:56:33;102538.19;;;11.49;86.88
17362;BME280;8798;51.938;4.348;2024-02-04T03:59:01;102547.97;;;11.50;87.34
17362;BME280;8798;51.938;4.348;2024-02-04T04:01:29;102549.69;;;11.51;86.84
17362;BME280;8798;51.938;4.348;2024-02-04T04:03:59;102558.50;;;11.53;86.77
17362;BME280;8798;51.938;4.348;2024-02-04T04:06:27;102562.81;;;11.56;87.41
17362;BME280;8798;51.938;4.348;2024-02-04T04:08:55;102569.78;;;11.58;87.31
17362;BME280;8798;51.938;4.348;2024-02-04T04:11:25;102567.09;;;11.58;86.92
17362;BME280;8798;51.938;4.348;2024-02-04T04:13:53;102578.59;;;11.60;87.00
17362;BME280;8798;51.938;4.348;2024-02-04T04:16:21;102574.94;;;11.61;87.05
17362;BME280;8798;51.938;4.348;2024-02-04T04:18:49;102577.63;;;11.61;86.74
17362;BME280;8798;51.938;4.348;2024-02-04T04:21:19;102564.31;;;11.60;86.96
17362;BME280;8798;51.938;4.348;2024-02-04T04:23:47;102568.69;;;11.61;86.78
17362;BME280;8798;51.938;4.348;2024-02-04T04:26:15;102572.25;;;11.61;86.89
17362;BME280;8798;51.938;4.348;2024-02-04T04:28:42;102566.84;;;11.61;87.12
17362;BME280;8798;51.938;4.348;2024-02-04T04:31:10;102557.06;;;11.60;86.90
17362;BME280;8798;51.938;4.348;2024-02-04T04:33:38;102552.66;;;11.59;86.59
17362;BME280;8798;51.938;4.348;2024-02-04T04:36:07;102556.22;;;11.60;86.86
17362;BME280;8798;51.938;4.348;2024-02-04T04:38:36;102541.03;;;11.59;86.64
17362;BME280;8798;51.938;4.348;2024-02-04T04:41:04;102544.56;;;11.59;87.13
17362;BME280;8798;51.938;4.348;2024-02-04T04:43:36;102547.25;;;11.59;86.86
17362;BME280;8798;51.938;4.348;2024-02-04T04:46:04;102537.47;;;11.58;87.18
17362;BME280;8798;51.938;4.348;2024-02-04T04:48:32;102535.66;;;11.59;87.08
17362;BME280;8798;51.938;4.348;2024-02-04T04:51:00;102529.41;;;11.58;86.86
17362;BME280;8798;51.938;4.348;2024-02-04T04:53:28;102535.53;;;11.60;87.00
17362;BME280;8798;51.938;4.348;2024-02-04T04:55:58;102540.94;;;11.60;86.60
17362;BME280;8798;51.938;4.348;2024-02-04T04:58:25;102532.84;;;11.60;86.90
17362;BME280;8798;51.938;4.348;2024-02-04T05:00:53;102524.03;;;11.58;87.12
17362;BME280;8798;51.938;4.348;2024-02-04T05:03:21;102519.63;;;11.57;86.65
17362;BME280;8798;51.938;4.348;2024-02-04T05:05:49;102521.34;;;11.58;87.37
17362;BME280;8798;51.938;4.348;2024-02-04T05:08:17;102519.63;;;11.57;87.29
17362;BME280;8798;51.938;4.348;2024-02-04T05:10:45;102512.41;;;11.58;86.61
17362;BME280;8798;51.938;4.348;2024-02-04T05:13:14;102516.06;;;11.57;86.90
17362;BME280;8798;51.938;4.348;2024-02-04T05:15:42;102504.59;;;11.55;87.10
17362;BME280;8798;51.938;4.348;2024-02-04T05:18:10;102505.44;;;11.55;87.45
17362;BME280;8798;51.938;4.348;2024-02-04T05:20:38;102500.91;;;11.56;87.12
17362;BME280;8798;51.938;4.348;2024-02-04T05:23:06;102493.81;;;11.55;86.66
17362;BME280;8798;51.938;4.348;2024-02-04T05:25:34;102492.94;;;11.54;86.63
17362;BME280;8798;51.938;4.348;2024-02-04T05:28:03;102488.44;;;11.55;86.92
17362;BME280;8798;51.938;4.348;2024-02-04T05:30:32;102490.25;;;11.54;86.84
17362;BME280;8798;51.938;4.348;2024-02-04T05:33:00;102487.53;;;11.54;87.46
17362;BME280;8798;51.938;4.348;2024-02-04T05:35:28;102485.84;;;11.53;87.25
17362;BME280;8798;51.938;4.348;2024-02-04T05:37:56;102483.25;;;11.52;86.90
17362;BME280;8798;51.938;4.348;2024-02-04T05:40:24;102468.94;;;11.51;87.11
17362;BME280;8798;51.938;4.348;2024-02-04T05:42:54;102458.28;;;11.50;86.72
17362;BME280;8798;51.938;4.348;2024-02-04T05:45:36;102457.44;;;11.49;86.88
17362;BME280;8798;51.938;4.348;2024-02-04T05:48:18;102444.97;;;11.48;86.94
17362;BME280;8798;51.938;4.348;2024-02-04T05:50:46;102453.91;;;11.49;86.40
17362;BME280;8798;51.938;4.348;2024-02-04T05:53:14;102454.75;;;11.49;86.76
17362;BME280;8798;51.938;4.348;2024-02-04T05:55:42;102448.63;;;11.47;86.92
17362;BME280;8798;51.938;4.348;2024-02-04T05:58:11;102443.25;;;11.47;86.68
17362;BME280;8798;51.938;4.348;2024-02-04T06:00:41;102445.09;;;11.47;87.25
17362;BME280;8798;51.938;4.348;2024-02-04T06:03:09;102454.75;;;11.49;86.91
17362;BME280;8798;51.938;4.348;2024-02-04T06:05:37;102453.78;;;11.50;86.62
17362;BME280;8798;51.938;4.348;2024-02-04T06:08:06;102468.84;;;11.53;86.53
17362;BME280;8798;51.938;4.348;2024-02-04T06:10:34;102467.75;;;11.55;86.81
17362;BME280;8798;51.938;4.348;2024-02-04T06:13:02;102461.63;;;11.53;87.07
17362;BME280;8798;51.938;4.348;2024-02-04T06:15:30;102461.63;;;11.53;86.37
17362;BME280;8798;51.938;4.348;2024-02-04T06:17:59;102457.94;;;11.54;86.99
17362;BME280;8798;51.938;4.348;2024-02-04T06:20:27;102457.94;;;11.54;86.83
17362;BME280;8798;51.938;4.348;2024-02-04T06:22:55;102460.53;;;11.56;86.81
17362;BME280;8798;51.938;4.348;2024-02-04T06:25:24;102473.88;;;11.57;86.85
17362;BME280;8798;51.938;4.348;2024-02-04T06:27:52;102469.34;;;11.58;86.38
17362;BME280;8798;51.938;4.348;2024-02-04T06:30:20;102453.31;;;11.56;86.80
17362;BME280;8798;51.938;4.348;2024-02-04T06:32:48;102461.50;;;11.55;86.83
17362;BME280;8798;51.938;4.348;2024-02-04T06:35:18;102456.97;;;11.55;86.85
17362;BME280;8798;51.938;4.348;2024-02-04T06:37:46;102448.16;;;11.53;86.64
17362;BME280;8798;51.938;4.348;2024-02-04T06:40:14;102441.09;;;11.52;87.11
17362;BME280;8798;51.938;4.348;2024-02-04T06:42:42;102422.47;;;11.49;86.73
17362;BME280;8798;51.938;4.348;2024-02-04T06:45:11;102408.41;;;11.46;86.62
17362;BME280;8798;51.938;4.348;2024-02-04T06:47:39;102390.75;;;11.41;86.98
17362;BME280;8798;51.938;4.348;2024-02-04T06:50:07;102371.31;;;11.38;86.43
17362;BME280;8798;51.938;4.348;2024-02-04T06:52:41;102374.13;;;11.36;86.65
17362;BME280;8798;51.938;4.348;2024-02-04T06:55:10;102359.81;;;11.36;86.41
17362;BME280;8798;51.938;4.348;2024-02-04T06:57:38;102365.19;;;11.36;86.41
17362;BME280;8798;51.938;4.348;2024-02-04T07:00:07;102369.59;;;11.37;86.86
17362;BME280;8798;51.938;4.348;2024-02-04T07:02:35;102352.59;;;11.36;86.42
17362;BME280;8798;51.938;4.348;2024-02-04T07:05:06;102360.78;;;11.35;86.27
17362;BME280;8798;51.938;4.348;2024-02-04T07:07:41;102352.84;;;11.33;86.42
17362;BME280;8798;51.938;4.348;2024-02-04T07:10:09;102342.19;;;11.32;86.65
17362;BME280;8798;51.938;4.348;2024-02-04T07:12:37;102347.56;;;11.32;86.12
17362;BME280;8798;51.938;4.348;2024-02-04T07:15:06;102347.56;;;11.32;86.63
17362;BME280;8798;51.938;4.348;2024-02-04T07:17:35;102350.25;;;11.32;86.20
17362;BME280;8798;51.938;4.348;2024-02-04T07:20:03;102337.81;;;11.31;86.17
17362;BME280;8798;51.938;4.348;2024-02-04T07:22:32;102334.25;;;11.30;86.32
17362;BME280;8798;51.938;4.348;2024-02-04T07:25:05;102341.34;;;11.31;86.29
17362;BME280;8798;51.938;4.348;2024-02-04T07:27:34;102349.31;;;11.33;86.59
17362;BME280;8798;51.938;4.348;2024-02-04T07:30:03;102341.34;;;11.31;86.37
17362;BME280;8798;51.938;4.348;2024-02-04T07:32:31;102339.50;;;11.32;86.58
17362;BME280;8798;51.938;4.348;2024-02-04T07:35:01;102344.78;;;11.33;86.43
17362;BME280;8798;51.938;4.348;2024-02-04T07:37:29;102351.84;;;11.34;86.24
17362;BME280;8798;51.938;4.348;2024-02-04T07:39:57;102354.53;;;11.34;86.11
17362;BME280;8798;51.938;4.348;2024-02-04T07:42:26;102358.84;;;11.37;86.10
17362;BME280;8798;51.938;4.348;2024-02-04T07:44:54;102373.16;;;11.37;86.83
17362;BME280;8798;51.938;4.348;2024-02-04T07:47:22;102385.38;;;11.41;86.28
17362;BME280;8798;51.938;4.348;2024-02-04T07:49:50;102396.03;;;11.43;86.68
17362;BME280;8798;51.938;4.348;2024-02-04T07:52:19;102397.63;;;11.46;86.34
17362;BME280;8798;51.938;4.348;2024-02-04T07:54:47;102397.63;;;11.46;86.32
17362;BME280;8798;51.938;4.348;2024-02-04T07:57:15;102408.25;;;11.47;86.49
17362;BME280;8798;51.938;4.348;2024-02-04T07:59:44;102402.88;;;11.47;86.25
17362;BME280;8798;51.938;4.348;2024-02-04T08:02:12;102401.16;;;11.46;86.40
17362;BME280;8798;51.938;4.348;2024-02-04T08:04:40;102393.09;;;11.46;86.73
17362;BME280;8798;51.938;4.348;2024-02-04T08:07:09;102409.00;;;11.49;86.99
17362;BME280;8798;51.938;4.348;2024-02-04T08:09:37;102410.75;;;11.50;86.69
17362;BME280;8798;51.938;4.348;2024-02-04T08:12:05;102409.75;;;11.51;86.22
17362;BME280;8798;51.938;4.348;2024-02-04T08:14:33;102421.25;;;11.53;86.64
17362;BME280;8798;51.938;4.348;2024-02-04T08:17:02;102432.88;;;11.54;86.64
17362;BME280;8798;51.938;4.348;2024-02-04T08:19:30;102436.31;;;11.56;86.74
17362;BME280;8798;51.938;4.348;2024-02-04T08:21:58;102434.47;;;11.56;87.00
17362;BME280;8798;51.938;4.348;2024-02-04T08:24:27;102440.69;;;11.57;86.22
17362;BME280;8798;51.938;4.348;2024-02-04T08:26:56;102443.28;;;11.58;87.00
17362;BME280;8798;51.938;4.348;2024-02-04T08:29:24;102454.56;;;11.63;86.86
17362;BME280;8798;51.938;4.348;2024-02-04T08:31:53;102459.94;;;11.63;86.95
17362;BME280;8798;51.938;4.348;2024-02-04T08:34:23;102470.44;;;11.67;86.79
17362;BME280;8798;51.938;4.348;2024-02-04T08:36:52;102471.34;;;11.67;86.21
17362;BME280;8798;51.938;4.348;2024-02-04T08:39:20;102466.81;;;11.68;86.81
17362;BME280;8798;51.938;4.348;2024-02-04T08:41:49;102476.59;;;11.69;86.97
17362;BME280;8798;51.938;4.348;2024-02-04T08:44:17;102479.16;;;11.70;86.42
17362;BME280;8798;51.938;4.348;2024-02-04T08:47:01;102480.88;;;11.71;87.03
17362;BME280;8798;51.938;4.348;2024-02-04T08:49:30;102489.69;;;11.73;86.80
17362;BME280;8798;51.938;4.348;2024-02-04T08:51:58;102485.16;;;11.74;86.28
17362;BME280;8798;51.938;4.348;2024-02-04T08:54:26;102491.28;;;11.76;86.99
17362;BME280;8798;51.938;4.348;2024-02-04T08:56:54;102493.97;;;11.76;86.54
17362;BME280;8798;51.938;4.348;2024-02-04T08:59:22;102496.56;;;11.77;86.91
17362;BME280;8798;51.938;4.348;2024-02-04T09:01:51;102497.41;;;11.78;86.61
17362;BME280;8798;51.938;4.348;2024-02-04T09:04:19;102502.69;;;11.79;86.21
17362;BME280;8798;51.938;4.348;2024-02-04T09:06:48;102499.00;;;11.80;86.79
17362;BME280;8798;51.938;4.348;2024-02-04T09:09:16;102483.97;;;11.78;86.96
17362;BME280;8798;51.938;4.348;2024-02-04T09:11:44;102465.47;;;11.73;86.64
17362;BME280;8798;51.938;4.348;2024-02-04T09:14:12;102436.44;;;11.66;86.86
17362;BME280;8798;51.938;4.348;2024-02-04T09:16:40;102408.19;;;11.60;86.45
17362;BME280;8798;51.938;4.348;2024-02-04T09:19:08;102395.81;;;11.57;86.64
17362;BME280;8798;51.938;4.348;2024-02-04T09:21:37;102377.34;;;11.53;86.67
17362;BME280;8798;51.938;4.348;2024-02-04T09:24:06;102360.56;;;11.49;86.90
17362;BME280;8798;51.938;4.348;2024-02-04T09:26:34;102344.66;;;11.46;86.76
17362;BME280;8798;51.938;4.348;2024-02-04T09:29:02;102318.13;;;11.41;86.51
17362;BME280;8798;51.938;4.348;2024-02-04T09:31:30;102319.97;;;11.41;86.69
17362;BME280;8798;51.938;4.348;2024-02-04T09:33:58;102321.78;;;11.40;86.87
17362;BME280;8798;51.938;4.348;2024-02-04T09:36:26;102318.25;;;11.40;86.28
17362;BME280;8798;51.938;4.348;2024-02-04T09:38:55;102319.09;;;11.40;86.53
17362;BME280;8798;51.938;4.348;2024-02-04T09:41:25;102318.25;;;11.40;86.62
17362;BME280;8798;51.938;4.348;2024-02-04T09:43:53;102309.44;;;11.38;86.34
17362;BME280;8798;51.938;4.348;2024-02-04T09:46:22;102320.06;;;11.39;86.22
17362;BME280;8798;51.938;4.348;2024-02-04T09:48:51;102320.81;;;11.41;86.56
17362;BME280;8798;51.938;4.348;2024-02-04T09:51:19;102322.53;;;11.43;86.49
17362;BME280;8798;51.938;4.348;2024-02-04T09:53:51;102339.38;;;11.45;86.21
17362;BME280;8798;51.938;4.348;2024-02-04T09:56:22;102344.56;;;11.48;86.60
17362;BME280;8798;51.938;4.348;2024-02-04T09:58:52;102349.81;;;11.49;86.58
17362;BME280;8798;51.938;4.348;2024-02-04T10:01:21;102363.16;;;11.51;86.66
17362;BME280;8798;51.938;4.348;2024-02-04T10:03:51;102361.31;;;11.51;86.67
17362;BME280;8798;51.938;4.348;2024-02-04T10:06:19;102374.50;;;11.54;86.50
17362;BME280;8798;51.938;4.348;2024-02-04T10:08:47;102387.00;;;11.55;86.33
17362;BME280;8798;51.938;4.348;2024-02-04T10:11:16;102397.53;;;11.58;87.07
17362;BME280;8798;51.938;4.348;2024-02-04T10:13:44;102402.81;;;11.60;86.79
17362;BME280;8798;51.938;4.348;2024-02-04T10:16:15;102410.63;;;11.63;86.39
17362;BME280;8798;51.938;4.348;2024-02-04T10:18:44;102412.22;;;11.66;86.71
17362;BME280;8798;51.938;4.348;2024-02-04T10:21:16;102423.75;;;11.68;86.53
17362;BME280;8798;51.938;4.348;2024-02-04T10:23:45;102440.63;;;11.70;86.63
17362;BME280;8798;51.938;4.348;2024-02-04T10:26:13;102435.09;;;11.71;86.63
17362;BME280;8798;51.938;4.348;2024-02-04T10:28:42;102450.16;;;11.74;86.69
17362;BME280;8798;51.938;4.348;2024-02-04T10:31:14;102458.00;;;11.77;86.34
17362;BME280;8798;51.938;4.348;2024-02-04T10:33:43;102467.69;;;11.79;86.76
17362;BME280;8798;51.938;4.348;2024-02-04T10:36:12;102474.78;;;11.80;86.78
17362;BME280;8798;51.938;4.348;2024-02-04T10:38:40;102476.47;;;11.81;86.94
17362;BME280;8798;51.938;4.348;2024-02-04T10:41:10;102476.38;;;11.83;86.66
17362;BME280;8798;51.938;4.348;2024-02-04T10:43:42;102479.06;;;11.83;86.86
17362;BME280;8798;51.938;4.348;2024-02-04T10:46:18;102471.00;;;11.83;86.50
17362;BME280;8798;51.938;4.348;2024-02-04T10:48:51;102465.72;;;11.81;86.71
17362;BME280;8798;51.938;4.348;2024-02-04T10:51:24;102463.91;;;11.82;86.62
17362;BME280;8798;51.938;4.348;2024-02-04T10:53:54;102470.88;;;11.84;87.08
17362;BME280;8798;51.938;4.348;2024-02-04T10:56:25;102476.28;;;11.84;87.02
17362;BME280;8798;51.938;4.348;2024-02-04T10:58:58;102461.94;;;11.84;87.13
17362;BME280;8798;51.938;4.348;2024-02-04T11:01:30;102474.44;;;11.85;87.04
17362;BME280;8798;51.938;4.348;2024-02-04T11:03:59;102485.97;;;11.87;86.84
17362;BME280;8798;51.938;4.348;2024-02-04T11:06:29;102484.00;;;11.89;86.72
17362;BME280;8798;51.938;4.348;2024-02-04T11:08:57;102484.88;;;11.90;86.78
17362;BME280;8798;51.938;4.348;2024-02-04T11:11:27;102485.72;;;11.90;86.95
17362;BME280;8798;51.938;4.348;2024-02-04T11:13:58;102486.59;;;11.91;87.17
17362;BME280;8798;51.938;4.348;2024-02-04T11:16:46;102490.88;;;11.93;86.91
17362;BME280;8798;51.938;4.348;2024-02-04T11:19:30;102497.84;;;11.96;86.74
17362;BME280;8798;51.938;4.348;2024-02-04T11:22:19;102513.66;;;12.00;86.94
17362;BME280;8798;51.938;4.348;2024-02-04T11:25:08;102518.06;;;12.01;87.17
17362;BME280;8798;51.938;4.348;2024-02-04T11:27:41;102510.22;;;11.98;87.09
17362;BME280;8798;51.938;4.348;2024-02-04T11:30:10;102504.84;;;11.98;86.92
17362;BME280;8798;51.938;4.348;2024-02-04T11:32:39;102498.47;;;11.99;87.01
17362;BME280;8798;51.938;4.348;2024-02-04T11:35:09;102502.88;;;12.00;87.36
17362;BME280;8798;51.938;4.348;2024-02-04T11:37:38;102507.28;;;12.01;87.29
17362;BME280;8798;51.938;4.348;2024-02-04T11:40:14;102512.44;;;12.04;87.13
17362;BME280;8798;51.938;4.348;2024-02-04T11:42:43;102519.53;;;12.05;86.84
17362;BME280;8798;51.938;4.348;2024-02-04T11:45:12;102534.50;;;12.10;87.20
17362;BME280;8798;51.938;4.348;2024-02-04T11:47:42;102539.63;;;12.13;86.93
17362;BME280;8798;51.938;4.348;2024-02-04T11:50:11;102542.31;;;12.13;87.26
17362;BME280;8798;51.938;4.348;2024-02-04T11:52:40;102533.41;;;12.12;87.13
17362;BME280;8798;51.938;4.348;2024-02-04T11:55:16;102521.75;;;12.12;86.66
17362;BME280;8798;51.938;4.348;2024-02-04T11:57:44;102506.81;;;12.08;87.33
17362;BME280;8798;51.938;4.348;2024-02-04T12:00:15;102512.09;;;12.09;87.52
17362;BME280;8798;51.938;4.348;2024-02-04T12:02:47;102499.59;;;12.08;87.50
17362;BME280;8798;51.938;4.348;2024-02-04T12:05:15;102479.13;;;12.05;86.95
17362;BME280;8798;51.938;4.348;2024-02-04T12:07:43;102482.81;;;12.04;87.43
17362;BME280;8798;51.938;4.348;2024-02-04T12:10:12;102479.25;;;12.04;86.89
17362;BME280;8798;51.938;4.348;2024-02-04T12:12:40;102473.00;;;12.03;87.12
17362;BME280;8798;51.938;4.348;2024-02-04T12:15:08;102459.53;;;12.03;87.22
17362;BME280;8798;51.938;4.348;2024-02-04T12:17:37;102460.53;;;12.02;87.01
17362;BME280;8798;51.938;4.348;2024-02-04T12:20:07;102448.91;;;12.02;87.03
17362;BME280;8798;51.938;4.348;2024-02-04T12:22:36;102462.13;;;12.05;87.26
17362;BME280;8798;51.938;4.348;2024-02-04T12:25:05;102484.28;;;12.09;87.09
17362;BME280;8798;51.938;4.348;2024-02-04T12:27:34;102484.16;;;12.10;87.05
17362;BME280;8798;51.938;4.348;2024-02-04T12:30:03;102492.84;;;12.14;86.91
17362;BME280;8798;51.938;4.348;2024-02-04T12:32:31;102517.59;;;12.19;87.10
17362;BME280;8798;51.938;4.348;2024-02-04T12:35:00;102545.75;;;12.26;86.84
17362;BME280;8798;51.938;4.348;2024-02-04T12:37:30;102566.72;;;12.34;87.08
17362;BME280;8798;51.938;4.348;2024-02-04T12:40:00;102586.97;;;12.39;87.46
17362;BME280;8798;51.938;4.348;2024-02-04T12:42:29;102583.28;;;12.40;87.02
17362;BME280;8798;51.938;4.348;2024-02-04T12:44:57;102581.56;;;12.39;87.02
17362;BME280;8798;51.938;4.348;2024-02-04T12:47:25;102585.00;;;12.41;87.29
17362;BME280;8798;51.938;4.348;2024-02-04T12:49:59;102591.09;;;12.43;87.42
17362;BME280;8798;51.938;4.348;2024-02-04T12:52:30;102575.94;;;12.42;87.11
17362;BME280;8798;51.938;4.348;2024-02-04T12:55:02;102563.44;;;12.41;87.47
17362;BME280;8798;51.938;4.348;2024-02-04T12:57:31;102555.56;;;12.38;87.53
17362;BME280;8798;51.938;4.348;2024-02-04T13:00:06;102544.81;;;12.38;87.14
17362;BME280;8798;51.938;4.348;2024-02-04T13:02:36;102561.59;;;12.42;87.44
17362;BME280;8798;51.938;4.348;2024-02-04T13:05:03;102563.31;;;12.43;87.33
17362;BME280;8798;51.938;4.348;2024-02-04T13:07:33;102560.50;;;12.44;87.52
17362;BME280;8798;51.938;4.348;2024-02-04T13:10:01;102562.19;;;12.45;87.24